sensor_id;sensor_type;location;lat;lon;timestamp;P1;durP1;ratioP1;P2;durP2;ratioP2
8716;SDS011;4395;48.554;8.820;2022-07-23T00:01:58;4.80;;;4.40;;
8716;SDS011;4395;48.554;8.820;2022-07-23T00:04:02;4.50;;;4.13;;
8716;SDS011;4395;48.554;8.820;2022-07-23T00:06:05;4.77;;;4.37;;
8716;SDS011;4395;48.554;8.820;2022-07-23T00:08:10;4.80;;;4.40;;
8716;SDS011;4395;48.554;8.820;2022-07-23T00:10:14;4.13;;;3.83;;
8716;SDS011;4395;48.554;8.820;2022-07-23T00:12:17;5.17;;;4.50;;
8716;SDS011;4395;48.554;8.820;2022-07-23T00:14:20;4.57;;;4.17;;
8716;SDS011;4395;48.554;8.820;2022-07-23T00:16:23;4.83;;;4.23;;
8716;SDS011;4395;48.554;8.820;2022-07-23T00:18:26;5.07;;;4.30;;
8716;SDS011;4395;48.554;8.820;2022-07-23T00:20:30;4.93;;;4.53;;
8716;SDS011;4395;48.554;8.820;2022-07-23T00:22:33;5.93;;;4.00;;
8716;SDS011;4395;48.554;8.820;2022-07-23T00:24:36;4.70;;;4.30;;
8716;SDS011;4395;48.554;8.820;2022-07-23T00:26:39;4.63;;;4.13;;
8716;SDS011;4395;48.554;8.820;2022-07-23T00:28:41;4.60;;;4.10;;
8716;SDS011;4395;48.554;8.820;2022-07-23T00:30:44;4.47;;;4.17;;
8716;SDS011;4395;48.554;8.820;2022-07-23T00:32:48;4.23;;;3.83;;
8716;SDS011;4395;48.554;8.820;2022-07-23T00:34:57;4.53;;;4.13;;
8716;SDS011;4395;48.554;8.820;2022-07-23T00:37:01;4.50;;;4.17;;
8716;SDS011;4395;48.554;8.820;2022-07-23T00:39:04;4.50;;;4.10;;
8716;SDS011;4395;48.554;8.820;2022-07-23T00:41:07;4.03;;;3.70;;
8716;SDS011;4395;48.554;8.820;2022-07-23T00:43:10;4.60;;;4.20;;
8716;SDS011;4395;48.554;8.820;2022-07-23T00:45:12;5.10;;;4.23;;
8716;SDS011;4395;48.554;8.820;2022-07-23T00:47:15;4.70;;;4.30;;
8716;SDS011;4395;48.554;8.820;2022-07-23T00:49:18;4.50;;;4.10;;
8716;SDS011;4395;48.554;8.820;2022-07-23T00:51:22;4.80;;;4.27;;
8716;SDS011;4395;48.554;8.820;2022-07-23T00:53:26;5.00;;;4.20;;
8716;SDS011;4395;48.554;8.820;2022-07-23T00:55:29;4.97;;;4.47;;
8716;SDS011;4395;48.554;8.820;2022-07-23T00:57:32;4.50;;;4.10;;
8716;SDS011;4395;48.554;8.820;2022-07-23T00:59:38;5.90;;;4.57;;
8716;SDS011;4395;48.554;8.820;2022-07-23T01:01:41;4.63;;;4.00;;
8716;SDS011;4395;48.554;8.820;2022-07-23T01:03:45;4.50;;;4.10;;
8716;SDS011;4395;48.554;8.820;2022-07-23T01:05:48;7.93;;;4.00;;
8716;SDS011;4395;48.554;8.820;2022-07-23T01:07:51;4.53;;;4.10;;
8716;SDS011;4395;48.554;8.820;2022-07-23T01:09:58;4.70;;;4.17;;
8716;SDS011;4395;48.554;8.820;2022-07-23T01:12:01;5.07;;;4.57;;
8716;SDS011;4395;48.554;8.820;2022-07-23T01:14:11;4.73;;;4.33;;
8716;SDS011;4395;48.554;8.820;2022-07-23T01:16:15;4.80;;;4.30;;
8716;SDS011;4395;48.554;8.820;2022-07-23T01:18:18;6.13;;;4.60;;
8716;SDS011;4395;48.554;8.820;2022-07-23T01:20:21;4.90;;;4.50;;
8716;SDS011;4395;48.554;8.820;2022-07-23T01:22:28;4.93;;;4.30;;
8716;SDS011;4395;48.554;8.820;2022-07-23T01:24:32;5.20;;;4.70;;
8716;SDS011;4395;48.554;8.820;2022-07-23T01:26:38;4.87;;;4.47;;
8716;SDS011;4395;48.554;8.820;2022-07-23T01:28:43;5.20;;;4.13;;
8716;SDS011;4395;48.554;8.820;2022-07-23T01:30:47;4.47;;;4.17;;
8716;SDS011;4395;48.554;8.820;2022-07-23T01:32:50;4.73;;;4.33;;
8716;SDS011;4395;48.554;8.820;2022-07-23T01:34:53;4.73;;;4.33;;
8716;SDS011;4395;48.554;8.820;2022-07-23T01:36:56;4.73;;;4.33;;
8716;SDS011;4395;48.554;8.820;2022-07-23T01:39:00;4.83;;;4.23;;
8716;SDS011;4395;48.554;8.820;2022-07-23T01:41:04;4.07;;;3.67;;
8716;SDS011;4395;48.554;8.820;2022-07-23T01:43:08;5.73;;;4.60;;
8716;SDS011;4395;48.554;8.820;2022-07-23T01:45:12;5.00;;;4.50;;
8716;SDS011;4395;48.554;8.820;2022-07-23T01:47:20;4.47;;;4.10;;
8716;SDS011;4395;48.554;8.820;2022-07-23T01:49:26;4.93;;;4.47;;
8716;SDS011;4395;48.554;8.820;2022-07-23T01:51:48;4.57;;;4.17;;
8716;SDS011;4395;48.554;8.820;2022-07-23T01:54:08;4.90;;;4.40;;
8716;SDS011;4395;48.554;8.820;2022-07-23T01:56:11;5.37;;;4.33;;
8716;SDS011;4395;48.554;8.820;2022-07-23T01:58:16;4.57;;;4.17;;
8716;SDS011;4395;48.554;8.820;2022-07-23T02:00:19;4.60;;;4.20;;
8716;SDS011;4395;48.554;8.820;2022-07-23T02:02:25;4.73;;;4.27;;
8716;SDS011;4395;48.554;8.820;2022-07-23T02:04:28;4.80;;;4.30;;
8716;SDS011;4395;48.554;8.820;2022-07-23T02:06:31;4.23;;;3.87;;
8716;SDS011;4395;48.554;8.820;2022-07-23T02:08:34;4.80;;;4.40;;
8716;SDS011;4395;48.554;8.820;2022-07-23T02:10:38;4.80;;;4.30;;
8716;SDS011;4395;48.554;8.820;2022-07-23T02:12:41;4.97;;;4.43;;
8716;SDS011;4395;48.554;8.820;2022-07-23T02:14:44;4.73;;;4.33;;
8716;SDS011;4395;48.554;8.820;2022-07-23T02:16:46;4.90;;;4.50;;
8716;SDS011;4395;48.554;8.820;2022-07-23T02:18:49;5.03;;;4.43;;
8716;SDS011;4395;48.554;8.820;2022-07-23T02:20:52;4.57;;;4.17;;
8716;SDS011;4395;48.554;8.820;2022-07-23T02:22:55;5.17;;;4.33;;
8716;SDS011;4395;48.554;8.820;2022-07-23T02:24:59;4.73;;;4.40;;
8716;SDS011;4395;48.554;8.820;2022-07-23T02:27:03;5.20;;;4.63;;
8716;SDS011;4395;48.554;8.820;2022-07-23T02:29:07;5.27;;;4.70;;
8716;SDS011;4395;48.554;8.820;2022-07-23T02:31:10;5.33;;;4.83;;
8716;SDS011;4395;48.554;8.820;2022-07-23T02:33:13;5.27;;;4.73;;
8716;SDS011;4395;48.554;8.820;2022-07-23T02:35:16;5.10;;;4.60;;
8716;SDS011;4395;48.554;8.820;2022-07-23T02:37:19;4.60;;;4.20;;
8716;SDS011;4395;48.554;8.820;2022-07-23T02:39:22;5.20;;;4.80;;
8716;SDS011;4395;48.554;8.820;2022-07-23T02:41:25;5.93;;;4.70;;
8716;SDS011;4395;48.554;8.820;2022-07-23T02:43:29;5.07;;;4.60;;
8716;SDS011;4395;48.554;8.820;2022-07-23T02:45:32;4.80;;;4.40;;
8716;SDS011;4395;48.554;8.820;2022-07-23T02:47:35;4.70;;;4.30;;
8716;SDS011;4395;48.554;8.820;2022-07-23T02:49:38;4.77;;;4.37;;
8716;SDS011;4395;48.554;8.820;2022-07-23T02:51:42;4.20;;;3.90;;
8716;SDS011;4395;48.554;8.820;2022-07-23T02:53:46;6.13;;;4.27;;
8716;SDS011;4395;48.554;8.820;2022-07-23T02:55:49;4.80;;;4.40;;
8716;SDS011;4395;48.554;8.820;2022-07-23T02:57:51;4.53;;;4.13;;
8716;SDS011;4395;48.554;8.820;2022-07-23T02:59:56;4.60;;;4.20;;
8716;SDS011;4395;48.554;8.820;2022-07-23T03:01:58;4.67;;;4.33;;
8716;SDS011;4395;48.554;8.820;2022-07-23T03:04:02;4.67;;;4.20;;
8716;SDS011;4395;48.554;8.820;2022-07-23T03:06:05;5.17;;;4.67;;
8716;SDS011;4395;48.554;8.820;2022-07-23T03:08:12;5.17;;;4.67;;
8716;SDS011;4395;48.554;8.820;2022-07-23T03:10:18;4.73;;;4.43;;
8716;SDS011;4395;48.554;8.820;2022-07-23T03:12:21;4.77;;;4.37;;
8716;SDS011;4395;48.554;8.820;2022-07-23T03:14:24;5.13;;;4.63;;
8716;SDS011;4395;48.554;8.820;2022-07-23T03:16:30;5.37;;;4.77;;
8716;SDS011;4395;48.554;8.820;2022-07-23T03:18:33;5.07;;;4.57;;
8716;SDS011;4395;48.554;8.820;2022-07-23T03:20:42;5.80;;;5.30;;
8716;SDS011;4395;48.554;8.820;2022-07-23T03:22:45;5.33;;;4.90;;
8716;SDS011;4395;48.554;8.820;2022-07-23T03:24:50;5.37;;;4.63;;
8716;SDS011;4395;48.554;8.820;2022-07-23T03:27:06;5.20;;;4.80;;
8716;SDS011;4395;48.554;8.820;2022-07-23T03:29:09;5.40;;;4.70;;
8716;SDS011;4395;48.554;8.820;2022-07-23T03:31:12;5.20;;;4.80;;
8716;SDS011;4395;48.554;8.820;2022-07-23T03:33:17;5.40;;;5.00;;
8716;SDS011;4395;48.554;8.820;2022-07-23T03:35:21;5.47;;;4.97;;
8716;SDS011;4395;48.554;8.820;2022-07-23T03:37:45;5.70;;;5.30;;
8716;SDS011;4395;48.554;8.820;2022-07-23T03:39:48;5.27;;;4.87;;
8716;SDS011;4395;48.554;8.820;2022-07-23T03:41:51;5.70;;;5.10;;
8716;SDS011;4395;48.554;8.820;2022-07-23T03:43:54;5.90;;;5.40;;
8716;SDS011;4395;48.554;8.820;2022-07-23T03:45:57;5.67;;;5.27;;
8716;SDS011;4395;48.554;8.820;2022-07-23T03:47:59;5.60;;;5.10;;
8716;SDS011;4395;48.554;8.820;2022-07-23T03:50:05;5.50;;;5.00;;
8716;SDS011;4395;48.554;8.820;2022-07-23T03:52:08;5.93;;;5.33;;
8716;SDS011;4395;48.554;8.820;2022-07-23T03:54:11;5.77;;;5.20;;
8716;SDS011;4395;48.554;8.820;2022-07-23T03:56:14;6.23;;;5.63;;
8716;SDS011;4395;48.554;8.820;2022-07-23T03:58:17;5.63;;;4.90;;
8716;SDS011;4395;48.554;8.820;2022-07-23T04:00:20;5.77;;;5.27;;
8716;SDS011;4395;48.554;8.820;2022-07-23T04:02:25;4.97;;;4.57;;
8716;SDS011;4395;48.554;8.820;2022-07-23T04:04:28;5.30;;;4.83;;
8716;SDS011;4395;48.554;8.820;2022-07-23T04:06:33;5.37;;;4.87;;
8716;SDS011;4395;48.554;8.820;2022-07-23T04:08:36;5.60;;;5.20;;
8716;SDS011;4395;48.554;8.820;2022-07-23T04:10:39;5.90;;;5.33;;
8716;SDS011;4395;48.554;8.820;2022-07-23T04:12:42;5.70;;;5.20;;
8716;SDS011;4395;48.554;8.820;2022-07-23T04:14:45;6.70;;;5.30;;
8716;SDS011;4395;48.554;8.820;2022-07-23T04:16:48;5.80;;;5.20;;
8716;SDS011;4395;48.554;8.820;2022-07-23T04:18:52;5.47;;;5.07;;
8716;SDS011;4395;48.554;8.820;2022-07-23T04:20:56;5.40;;;4.90;;
8716;SDS011;4395;48.554;8.820;2022-07-23T04:23:01;5.87;;;5.27;;
8716;SDS011;4395;48.554;8.820;2022-07-23T04:25:06;5.60;;;5.10;;
8716;SDS011;4395;48.554;8.820;2022-07-23T04:27:10;7.03;;;5.10;;
8716;SDS011;4395;48.554;8.820;2022-07-23T04:29:14;5.70;;;5.20;;
8716;SDS011;4395;48.554;8.820;2022-07-23T04:31:16;5.93;;;5.33;;
8716;SDS011;4395;48.554;8.820;2022-07-23T04:33:19;5.90;;;5.40;;
8716;SDS011;4395;48.554;8.820;2022-07-23T04:35:25;5.60;;;5.10;;
8716;SDS011;4395;48.554;8.820;2022-07-23T04:37:33;5.40;;;4.90;;
8716;SDS011;4395;48.554;8.820;2022-07-23T04:39:37;4.93;;;4.53;;
8716;SDS011;4395;48.554;8.820;2022-07-23T04:41:40;7.00;;;5.30;;
8716;SDS011;4395;48.554;8.820;2022-07-23T04:43:43;5.80;;;5.20;;
8716;SDS011;4395;48.554;8.820;2022-07-23T04:45:46;6.57;;;4.90;;
8716;SDS011;4395;48.554;8.820;2022-07-23T04:47:49;6.43;;;5.83;;
8716;SDS011;4395;48.554;8.820;2022-07-23T04:49:52;6.27;;;5.50;;
8716;SDS011;4395;48.554;8.820;2022-07-23T04:51:55;6.00;;;5.40;;
8716;SDS011;4395;48.554;8.820;2022-07-23T04:53:57;5.70;;;5.20;;
8716;SDS011;4395;48.554;8.820;2022-07-23T04:56:02;6.03;;;5.43;;
8716;SDS011;4395;48.554;8.820;2022-07-23T04:58:06;6.30;;;5.40;;
8716;SDS011;4395;48.554;8.820;2022-07-23T05:00:09;5.83;;;5.30;;
8716;SDS011;4395;48.554;8.820;2022-07-23T05:02:14;5.77;;;5.30;;
8716;SDS011;4395;48.554;8.820;2022-07-23T05:04:17;5.90;;;5.30;;
8716;SDS011;4395;48.554;8.820;2022-07-23T05:06:20;6.00;;;5.43;;
8716;SDS011;4395;48.554;8.820;2022-07-23T05:08:23;5.97;;;5.13;;
8716;SDS011;4395;48.554;8.820;2022-07-23T05:10:29;5.70;;;5.20;;
8716;SDS011;4395;48.554;8.820;2022-07-23T05:12:34;6.30;;;5.80;;
8716;SDS011;4395;48.554;8.820;2022-07-23T05:14:37;5.90;;;5.40;;
8716;SDS011;4395;48.554;8.820;2022-07-23T05:16:40;7.27;;;5.97;;
8716;SDS011;4395;48.554;8.820;2022-07-23T05:18:50;6.90;;;5.53;;
8716;SDS011;4395;48.554;8.820;2022-07-23T05:20:54;7.70;;;6.40;;
8716;SDS011;4395;48.554;8.820;2022-07-23T05:22:57;7.60;;;6.43;;
8716;SDS011;4395;48.554;8.820;2022-07-23T05:25:00;6.73;;;6.03;;
8716;SDS011;4395;48.554;8.820;2022-07-23T05:27:04;7.47;;;6.17;;
8716;SDS011;4395;48.554;8.820;2022-07-23T05:29:09;8.70;;;6.40;;
8716;SDS011;4395;48.554;8.820;2022-07-23T05:31:12;7.10;;;6.40;;
8716;SDS011;4395;48.554;8.820;2022-07-23T05:33:16;7.60;;;6.37;;
8716;SDS011;4395;48.554;8.820;2022-07-23T05:35:21;7.63;;;6.93;;
8716;SDS011;4395;48.554;8.820;2022-07-23T05:37:39;7.30;;;6.70;;
8716;SDS011;4395;48.554;8.820;2022-07-23T05:39:42;7.90;;;7.20;;
8716;SDS011;4395;48.554;8.820;2022-07-23T05:41:46;7.17;;;6.57;;
8716;SDS011;4395;48.554;8.820;2022-07-23T05:43:51;7.60;;;6.90;;
8716;SDS011;4395;48.554;8.820;2022-07-23T05:45:56;7.60;;;6.87;;
8716;SDS011;4395;48.554;8.820;2022-07-23T05:47:59;7.93;;;7.10;;
8716;SDS011;4395;48.554;8.820;2022-07-23T05:50:08;11.50;;;7.33;;
8716;SDS011;4395;48.554;8.820;2022-07-23T05:52:18;7.97;;;7.27;;
8716;SDS011;4395;48.554;8.820;2022-07-23T05:54:41;7.83;;;7.10;;
8716;SDS011;4395;48.554;8.820;2022-07-23T05:56:44;8.43;;;7.53;;
8716;SDS011;4395;48.554;8.820;2022-07-23T05:58:47;12.93;;;7.90;;
8716;SDS011;4395;48.554;8.820;2022-07-23T06:00:52;7.97;;;7.30;;
8716;SDS011;4395;48.554;8.820;2022-07-23T06:02:57;8.40;;;7.57;;
8716;SDS011;4395;48.554;8.820;2022-07-23T06:05:03;7.60;;;6.90;;
8716;SDS011;4395;48.554;8.820;2022-07-23T06:07:07;8.23;;;7.53;;
8716;SDS011;4395;48.554;8.820;2022-07-23T06:09:10;8.30;;;6.90;;
8716;SDS011;4395;48.554;8.820;2022-07-23T06:11:15;7.80;;;7.07;;
8716;SDS011;4395;48.554;8.820;2022-07-23T06:13:19;9.10;;;8.17;;
8716;SDS011;4395;48.554;8.820;2022-07-23T06:15:22;8.47;;;7.67;;
8716;SDS011;4395;48.554;8.820;2022-07-23T06:17:26;7.63;;;6.97;;
8716;SDS011;4395;48.554;8.820;2022-07-23T06:19:31;7.90;;;7.20;;
8716;SDS011;4395;48.554;8.820;2022-07-23T06:21:34;8.40;;;7.60;;
8716;SDS011;4395;48.554;8.820;2022-07-23T06:23:48;9.07;;;7.30;;
8716;SDS011;4395;48.554;8.820;2022-07-23T06:25:52;7.63;;;7.03;;
8716;SDS011;4395;48.554;8.820;2022-07-23T06:27:55;7.90;;;7.20;;
8716;SDS011;4395;48.554;8.820;2022-07-23T06:30:00;7.90;;;7.20;;
8716;SDS011;4395;48.554;8.820;2022-07-23T06:32:04;8.00;;;7.17;;
8716;SDS011;4395;48.554;8.820;2022-07-23T06:34:07;7.43;;;6.73;;
8716;SDS011;4395;48.554;8.820;2022-07-23T06:36:12;7.93;;;7.23;;
8716;SDS011;4395;48.554;8.820;2022-07-23T06:38:14;7.73;;;7.00;;
8716;SDS011;4395;48.554;8.820;2022-07-23T06:40:20;7.77;;;6.93;;
8716;SDS011;4395;48.554;8.820;2022-07-23T06:42:23;7.20;;;6.50;;
8716;SDS011;4395;48.554;8.820;2022-07-23T06:44:31;7.53;;;6.57;;
8716;SDS011;4395;48.554;8.820;2022-07-23T06:46:34;7.60;;;6.90;;
8716;SDS011;4395;48.554;8.820;2022-07-23T06:48:38;8.13;;;7.13;;
8716;SDS011;4395;48.554;8.820;2022-07-23T06:50:41;7.30;;;6.60;;
8716;SDS011;4395;48.554;8.820;2022-07-23T06:52:45;7.00;;;6.30;;
8716;SDS011;4395;48.554;8.820;2022-07-23T06:54:49;7.20;;;6.50;;
8716;SDS011;4395;48.554;8.820;2022-07-23T06:56:52;6.63;;;6.03;;
8716;SDS011;4395;48.554;8.820;2022-07-23T06:58:55;7.20;;;6.50;;
8716;SDS011;4395;48.554;8.820;2022-07-23T07:01:00;7.13;;;6.53;;
8716;SDS011;4395;48.554;8.820;2022-07-23T07:03:03;7.10;;;6.50;;
8716;SDS011;4395;48.554;8.820;2022-07-23T07:05:07;7.07;;;6.30;;
8716;SDS011;4395;48.554;8.820;2022-07-23T07:07:10;7.17;;;6.50;;
8716;SDS011;4395;48.554;8.820;2022-07-23T07:09:15;8.63;;;7.17;;
8716;SDS011;4395;48.554;8.820;2022-07-23T07:11:19;9.63;;;6.90;;
8716;SDS011;4395;48.554;8.820;2022-07-23T07:13:22;7.33;;;6.40;;
8716;SDS011;4395;48.554;8.820;2022-07-23T07:15:25;7.43;;;6.73;;
8716;SDS011;4395;48.554;8.820;2022-07-23T07:17:28;6.90;;;6.30;;
8716;SDS011;4395;48.554;8.820;2022-07-23T07:19:32;6.63;;;6.13;;
8716;SDS011;4395;48.554;8.820;2022-07-23T07:21:35;6.63;;;6.13;;
8716;SDS011;4395;48.554;8.820;2022-07-23T07:23:38;7.30;;;6.60;;
8716;SDS011;4395;48.554;8.820;2022-07-23T07:25:42;7.33;;;6.70;;
8716;SDS011;4395;48.554;8.820;2022-07-23T07:27:45;7.30;;;6.63;;
8716;SDS011;4395;48.554;8.820;2022-07-23T07:29:49;7.27;;;6.47;;
8716;SDS011;4395;48.554;8.820;2022-07-23T07:31:52;7.60;;;6.80;;
8716;SDS011;4395;48.554;8.820;2022-07-23T07:33:55;7.00;;;6.30;;
8716;SDS011;4395;48.554;8.820;2022-07-23T07:35:58;7.50;;;6.70;;
8716;SDS011;4395;48.554;8.820;2022-07-23T07:38:01;7.00;;;6.33;;
8716;SDS011;4395;48.554;8.820;2022-07-23T07:40:05;7.03;;;6.40;;
8716;SDS011;4395;48.554;8.820;2022-07-23T07:42:10;6.70;;;6.17;;
8716;SDS011;4395;48.554;8.820;2022-07-23T07:44:13;7.00;;;6.20;;
8716;SDS011;4395;48.554;8.820;2022-07-23T07:46:16;7.07;;;6.47;;
8716;SDS011;4395;48.554;8.820;2022-07-23T07:48:19;6.80;;;6.30;;
8716;SDS011;4395;48.554;8.820;2022-07-23T07:50:23;7.07;;;6.23;;
8716;SDS011;4395;48.554;8.820;2022-07-23T07:52:26;6.70;;;6.20;;
8716;SDS011;4395;48.554;8.820;2022-07-23T07:54:29;6.50;;;5.90;;
8716;SDS011;4395;48.554;8.820;2022-07-23T07:56:33;6.10;;;5.70;;
8716;SDS011;4395;48.554;8.820;2022-07-23T07:58:38;6.13;;;5.53;;
8716;SDS011;4395;48.554;8.820;2022-07-23T08:00:41;6.53;;;5.90;;
8716;SDS011;4395;48.554;8.820;2022-07-23T08:02:47;6.73;;;6.10;;
8716;SDS011;4395;48.554;8.820;2022-07-23T08:04:51;22.40;;;7.10;;
8716;SDS011;4395;48.554;8.820;2022-07-23T08:06:54;11.10;;;6.40;;
8716;SDS011;4395;48.554;8.820;2022-07-23T08:08:57;7.07;;;5.67;;
8716;SDS011;4395;48.554;8.820;2022-07-23T08:11:00;6.73;;;6.07;;
8716;SDS011;4395;48.554;8.820;2022-07-23T08:13:03;5.90;;;5.33;;
8716;SDS011;4395;48.554;8.820;2022-07-23T08:15:08;5.93;;;5.43;;
8716;SDS011;4395;48.554;8.820;2022-07-23T08:17:14;7.77;;;5.53;;
8716;SDS011;4395;48.554;8.820;2022-07-23T08:19:17;6.17;;;5.67;;
8716;SDS011;4395;48.554;8.820;2022-07-23T08:21:20;6.20;;;5.60;;
8716;SDS011;4395;48.554;8.820;2022-07-23T08:23:24;6.00;;;5.50;;
8716;SDS011;4395;48.554;8.820;2022-07-23T08:25:31;6.27;;;5.40;;
8716;SDS011;4395;48.554;8.820;2022-07-23T08:27:35;5.80;;;5.40;;
8716;SDS011;4395;48.554;8.820;2022-07-23T08:29:38;6.57;;;5.50;;
8716;SDS011;4395;48.554;8.820;2022-07-23T08:31:42;7.47;;;5.33;;
8716;SDS011;4395;48.554;8.820;2022-07-23T08:33:46;6.17;;;5.67;;
8716;SDS011;4395;48.554;8.820;2022-07-23T08:35:49;6.20;;;5.57;;
8716;SDS011;4395;48.554;8.820;2022-07-23T08:37:54;5.83;;;5.33;;
8716;SDS011;4395;48.554;8.820;2022-07-23T08:39:57;5.20;;;4.80;;
8716;SDS011;4395;48.554;8.820;2022-07-23T08:42:00;7.80;;;6.73;;
8716;SDS011;4395;48.554;8.820;2022-07-23T08:44:03;6.30;;;5.70;;
8716;SDS011;4395;48.554;8.820;2022-07-23T08:46:09;6.43;;;5.53;;
8716;SDS011;4395;48.554;8.820;2022-07-23T08:48:15;6.07;;;5.57;;
8716;SDS011;4395;48.554;8.820;2022-07-23T08:50:22;6.37;;;5.87;;
8716;SDS011;4395;48.554;8.820;2022-07-23T08:52:26;6.73;;;6.13;;
8716;SDS011;4395;48.554;8.820;2022-07-23T08:54:30;6.60;;;6.10;;
8716;SDS011;4395;48.554;8.820;2022-07-23T08:56:33;7.40;;;6.70;;
8716;SDS011;4395;48.554;8.820;2022-07-23T08:58:37;7.03;;;6.43;;
8716;SDS011;4395;48.554;8.820;2022-07-23T09:00:41;7.00;;;6.30;;
8716;SDS011;4395;48.554;8.820;2022-07-23T09:02:44;6.30;;;5.80;;
8716;SDS011;4395;48.554;8.820;2022-07-23T09:04:49;6.60;;;6.00;;
8716;SDS011;4395;48.554;8.820;2022-07-23T09:06:55;6.33;;;5.83;;
8716;SDS011;4395;48.554;8.820;2022-07-23T09:08:59;7.30;;;6.60;;
8716;SDS011;4395;48.554;8.820;2022-07-23T09:11:19;7.30;;;6.60;;
8716;SDS011;4395;48.554;8.820;2022-07-23T09:13:26;6.83;;;6.20;;
8716;SDS011;4395;48.554;8.820;2022-07-23T09:15:38;6.43;;;5.90;;
8716;SDS011;4395;48.554;8.820;2022-07-23T09:17:54;7.17;;;6.60;;
8716;SDS011;4395;48.554;8.820;2022-07-23T09:20:08;6.73;;;6.17;;
8716;SDS011;4395;48.554;8.820;2022-07-23T09:22:18;6.70;;;6.10;;
8716;SDS011;4395;48.554;8.820;2022-07-23T09:24:28;6.93;;;6.33;;
8716;SDS011;4395;48.554;8.820;2022-07-23T09:26:32;6.93;;;6.07;;
8716;SDS011;4395;48.554;8.820;2022-07-23T09:28:46;6.77;;;6.20;;
8716;SDS011;4395;48.554;8.820;2022-07-23T09:30:52;6.93;;;6.33;;
8716;SDS011;4395;48.554;8.820;2022-07-23T09:33:08;8.20;;;7.07;;
8716;SDS011;4395;48.554;8.820;2022-07-23T09:35:13;9.00;;;8.27;;
8716;SDS011;4395;48.554;8.820;2022-07-23T09:37:17;6.43;;;5.93;;
8716;SDS011;4395;48.554;8.820;2022-07-23T09:39:24;6.20;;;5.77;;
8716;SDS011;4395;48.554;8.820;2022-07-23T09:41:33;6.87;;;6.23;;
8716;SDS011;4395;48.554;8.820;2022-07-23T09:43:38;6.70;;;5.90;;
8716;SDS011;4395;48.554;8.820;2022-07-23T09:45:41;6.97;;;6.30;;
8716;SDS011;4395;48.554;8.820;2022-07-23T09:47:44;7.43;;;6.20;;
8716;SDS011;4395;48.554;8.820;2022-07-23T09:49:58;6.63;;;6.10;;
8716;SDS011;4395;48.554;8.820;2022-07-23T09:52:06;6.27;;;5.77;;
8716;SDS011;4395;48.554;8.820;2022-07-23T09:54:09;7.17;;;6.40;;
8716;SDS011;4395;48.554;8.820;2022-07-23T09:56:24;7.03;;;6.43;;
8716;SDS011;4395;48.554;8.820;2022-07-23T09:58:30;6.60;;;6.10;;
8716;SDS011;4395;48.554;8.820;2022-07-23T10:00:33;7.17;;;6.57;;
8716;SDS011;4395;48.554;8.820;2022-07-23T10:02:38;6.47;;;5.97;;
8716;SDS011;4395;48.554;8.820;2022-07-23T10:05:08;7.23;;;6.60;;
8716;SDS011;4395;48.554;8.820;2022-07-23T10:07:33;6.60;;;6.00;;
8716;SDS011;4395;48.554;8.820;2022-07-23T10:09:56;6.50;;;5.90;;
8716;SDS011;4395;48.554;8.820;2022-07-23T10:12:11;7.33;;;6.63;;
8716;SDS011;4395;48.554;8.820;2022-07-23T10:14:34;6.63;;;6.07;;
8716;SDS011;4395;48.554;8.820;2022-07-23T10:16:38;7.17;;;6.57;;
8716;SDS011;4395;48.554;8.820;2022-07-23T10:18:42;6.47;;;6.00;;
8716;SDS011;4395;48.554;8.820;2022-07-23T10:20:46;6.97;;;6.37;;
8716;SDS011;4395;48.554;8.820;2022-07-23T10:22:54;6.73;;;6.23;;
8716;SDS011;4395;48.554;8.820;2022-07-23T10:25:08;6.80;;;6.10;;
8716;SDS011;4395;48.554;8.820;2022-07-23T10:27:25;9.67;;;8.80;;
8716;SDS011;4395;48.554;8.820;2022-07-23T10:29:58;6.70;;;6.10;;
8716;SDS011;4395;48.554;8.820;2022-07-23T10:32:08;10.93;;;10.00;;
8716;SDS011;4395;48.554;8.820;2022-07-23T10:34:21;6.50;;;6.00;;
8716;SDS011;4395;48.554;8.820;2022-07-23T10:36:30;6.43;;;5.90;;
8716;SDS011;4395;48.554;8.820;2022-07-23T10:38:50;6.77;;;5.97;;
8716;SDS011;4395;48.554;8.820;2022-07-23T10:40:58;6.67;;;6.03;;
8716;SDS011;4395;48.554;8.820;2022-07-23T10:43:03;6.47;;;6.03;;
8716;SDS011;4395;48.554;8.820;2022-07-23T10:45:26;6.23;;;5.63;;
8716;SDS011;4395;48.554;8.820;2022-07-23T10:47:31;5.93;;;5.43;;
8716;SDS011;4395;48.554;8.820;2022-07-23T10:49:48;6.27;;;5.67;;
8716;SDS011;4395;48.554;8.820;2022-07-23T10:54:21;6.23;;;5.80;;
8716;SDS011;4395;48.554;8.820;2022-07-23T10:58:52;6.57;;;6.03;;
8716;SDS011;4395;48.554;8.820;2022-07-23T11:00:55;6.60;;;5.93;;
8716;SDS011;4395;48.554;8.820;2022-07-23T11:02:58;6.67;;;6.17;;
8716;SDS011;4395;48.554;8.820;2022-07-23T11:05:03;6.50;;;5.90;;
8716;SDS011;4395;48.554;8.820;2022-07-23T11:07:08;6.17;;;5.67;;
8716;SDS011;4395;48.554;8.820;2022-07-23T11:09:27;6.87;;;6.27;;
8716;SDS011;4395;48.554;8.820;2022-07-23T11:11:30;6.40;;;5.93;;
8716;SDS011;4395;48.554;8.820;2022-07-23T11:16:05;6.07;;;5.60;;
8716;SDS011;4395;48.554;8.820;2022-07-23T11:18:12;6.47;;;5.97;;
8716;SDS011;4395;48.554;8.820;2022-07-23T11:20:19;7.20;;;5.67;;
8716;SDS011;4395;48.554;8.820;2022-07-23T11:22:33;6.60;;;5.47;;
8716;SDS011;4395;48.554;8.820;2022-07-23T11:24:42;6.40;;;5.90;;
8716;SDS011;4395;48.554;8.820;2022-07-23T11:31:51;6.37;;;5.77;;
8716;SDS011;4395;48.554;8.820;2022-07-23T11:36:26;6.50;;;6.00;;
8716;SDS011;4395;48.554;8.820;2022-07-23T11:38:30;5.90;;;5.40;;
8716;SDS011;4395;48.554;8.820;2022-07-23T11:40:35;7.47;;;5.70;;
8716;SDS011;4395;48.554;8.820;2022-07-23T11:42:39;6.23;;;5.73;;
8716;SDS011;4395;48.554;8.820;2022-07-23T11:44:52;6.13;;;5.60;;
8716;SDS011;4395;48.554;8.820;2022-07-23T11:46:55;6.03;;;5.60;;
8716;SDS011;4395;48.554;8.820;2022-07-23T11:49:01;6.23;;;5.73;;
8716;SDS011;4395;48.554;8.820;2022-07-23T11:51:05;6.40;;;5.47;;
8716;SDS011;4395;48.554;8.820;2022-07-23T11:53:08;6.90;;;6.30;;
8716;SDS011;4395;48.554;8.820;2022-07-23T11:55:11;5.87;;;5.37;;
8716;SDS011;4395;48.554;8.820;2022-07-23T11:57:19;6.27;;;5.67;;
8716;SDS011;4395;48.554;8.820;2022-07-23T11:59:23;6.00;;;5.50;;
8716;SDS011;4395;48.554;8.820;2022-07-23T12:01:30;6.50;;;5.90;;
8716;SDS011;4395;48.554;8.820;2022-07-23T12:03:34;6.53;;;6.03;;
8716;SDS011;4395;48.554;8.820;2022-07-23T12:05:38;5.80;;;5.30;;
8716;SDS011;4395;48.554;8.820;2022-07-23T12:07:42;6.17;;;5.67;;
8716;SDS011;4395;48.554;8.820;2022-07-23T12:09:46;6.23;;;5.53;;
8716;SDS011;4395;48.554;8.820;2022-07-23T12:11:58;6.03;;;5.47;;
8716;SDS011;4395;48.554;8.820;2022-07-23T12:14:02;6.10;;;5.60;;
8716;SDS011;4395;48.554;8.820;2022-07-23T12:16:07;6.53;;;5.53;;
8716;SDS011;4395;48.554;8.820;2022-07-23T12:18:12;6.30;;;5.73;;
8716;SDS011;4395;48.554;8.820;2022-07-23T12:20:18;6.50;;;6.00;;
8716;SDS011;4395;48.554;8.820;2022-07-23T12:22:23;6.20;;;5.60;;
8716;SDS011;4395;48.554;8.820;2022-07-23T12:24:26;6.00;;;5.50;;
8716;SDS011;4395;48.554;8.820;2022-07-23T12:26:29;6.10;;;5.60;;
8716;SDS011;4395;48.554;8.820;2022-07-23T12:28:32;6.37;;;5.90;;
8716;SDS011;4395;48.554;8.820;2022-07-23T12:30:40;6.13;;;5.53;;
8716;SDS011;4395;48.554;8.820;2022-07-23T12:32:45;6.10;;;5.57;;
8716;SDS011;4395;48.554;8.820;2022-07-23T12:34:51;5.60;;;5.20;;
8716;SDS011;4395;48.554;8.820;2022-07-23T12:37:05;5.40;;;5.00;;
8716;SDS011;4395;48.554;8.820;2022-07-23T12:39:09;6.53;;;5.53;;
8716;SDS011;4395;48.554;8.820;2022-07-23T12:41:17;5.90;;;5.40;;
8716;SDS011;4395;48.554;8.820;2022-07-23T12:43:21;6.97;;;5.20;;
8716;SDS011;4395;48.554;8.820;2022-07-23T12:45:25;7.03;;;5.50;;
8716;SDS011;4395;48.554;8.820;2022-07-23T12:47:30;5.93;;;5.53;;
8716;SDS011;4395;48.554;8.820;2022-07-23T12:49:52;6.30;;;5.60;;
8716;SDS011;4395;48.554;8.820;2022-07-23T12:51:55;5.83;;;5.40;;
8716;SDS011;4395;48.554;8.820;2022-07-23T12:53:59;6.67;;;5.47;;
8716;SDS011;4395;48.554;8.820;2022-07-23T12:56:08;6.20;;;5.70;;
8716;SDS011;4395;48.554;8.820;2022-07-23T12:58:16;6.13;;;5.53;;
8716;SDS011;4395;48.554;8.820;2022-07-23T13:00:20;6.40;;;5.90;;
8716;SDS011;4395;48.554;8.820;2022-07-23T13:02:24;5.93;;;5.50;;
8716;SDS011;4395;48.554;8.820;2022-07-23T13:04:28;6.27;;;5.67;;
8716;SDS011;4395;48.554;8.820;2022-07-23T13:06:33;6.40;;;5.80;;
8716;SDS011;4395;48.554;8.820;2022-07-23T13:08:38;6.70;;;5.63;;
8716;SDS011;4395;48.554;8.820;2022-07-23T13:10:42;5.93;;;5.33;;
8716;SDS011;4395;48.554;8.820;2022-07-23T13:12:48;6.30;;;5.80;;
8716;SDS011;4395;48.554;8.820;2022-07-23T13:14:51;6.20;;;5.60;;